Time;durP1;ratioP1;P1;durP2;ratioP2;P2;SDS_P1;SDS_P2;PMS_P1;PMS_P2;Temp;Humidity;BMP_temperature;BMP_pressure;BME280_temperature;BME280_humidity;BME280_pressure;Samples;Min_cycle;Max_cycle;Signal;HPM_P1;HPM_P2
2024/01/08 07:06:18;;;;;;;8.23;6.75;;;;;;;-8.11;100.00;102201.59;5105789;28;20043;-66
2024/01/08 07:08:47;;;;;;;8.63;6.50;;;;;;;-8.01;100.00;102198.97;5112736;28;20056;-69
2024/01/08 07:11:20;;;;;;;16.00;8.23;;;;;;;-8.09;100.00;102162.84;5117100;28;20068;-65
2024/01/08 07:13:46;;;;;;;9.00;6.60;;;;;;;-7.85;100.00;102185.91;5118227;28;20103;-67
2024/01/08 07:16:12;;;;;;;7.40;6.80;;;;;;;-7.78;100.00;102175.53;5113209;28;20051;-66
2024/01/08 07:18:37;;;;;;;8.60;6.50;;;;;;;-8.17;100.00;102099.97;5107153;28;20031;-67
2024/01/08 07:21:03;;;;;;;9.23;6.17;;;;;;;-7.88;100.00;102149.72;5101701;28;20036;-68
2024/01/08 07:23:28;;;;;;;8.10;6.43;;;;;;;-7.64;100.00;102159.03;5103658;28;20310;-66
2024/01/08 07:25:54;;;;;;;12.60;8.07;;;;;;;-7.58;100.00;102173.63;5103583;28;20080;-63
2024/01/08 07:28:19;;;;;;;9.73;6.07;;;;;;;-7.57;100.00;102155.50;5103259;28;20042;-67
2024/01/08 07:30:45;;;;;;;7.83;6.93;;;;;;;-7.61;100.00;102151.22;5101765;28;20100;-66
2024/01/08 07:33:10;;;;;;;7.27;6.03;;;;;;;-7.50;100.00;102174.44;5105171;28;20482;-67
2024/01/08 07:35:36;;;;;;;11.30;6.70;;;;;;;-7.58;100.00;102132.22;5106641;28;20045;-65
2024/01/08 07:38:01;;;;;;;11.17;6.57;;;;;;;-7.57;100.00;102133.94;5101285;28;20119;-65
2024/01/08 07:40:27;;;;;;;5.90;5.30;;;;;;;-7.78;100.00;102103.13;5106517;28;20534;-66
2024/01/08 07:42:54;;;;;;;8.33;6.13;;;;;;;-7.39;100.00;102175.19;5105662;28;20035;-66
2024/01/08 07:45:19;;;;;;;7.55;6.45;;;;;;;-7.58;100.00;102137.41;5100180;28;20077;-67
2024/01/08 07:47:45;;;;;;;6.53;5.73;;;;;;;-7.44;100.00;102150.22;5100653;28;20043;-68
2024/01/08 07:50:11;;;;;;;9.80;6.87;;;;;;;-7.44;100.00;102151.09;5106249;28;20146;-63
2024/01/08 07:52:36;;;;;;;7.70;6.90;;;;;;;-7.50;100.00;102139.06;5103867;28;20052;-65
2024/01/08 07:55:06;;;;;;;11.37;6.33;;;;;;;-7.60;100.00;102121.03;5100924;28;20428;-66
2024/01/08 07:57:31;;;;;;;10.55;6.13;;;;;;;-7.48;100.00;102136.47;5102193;27;20038;-67
2024/01/08 07:59:57;;;;;;;6.80;5.57;;;;;;;-7.39;100.00;102159.66;5103694;28;20035;-67
2024/01/08 08:02:23;;;;;;;11.98;6.15;;;;;;;-7.33;100.00;102163.91;5100256;28;20051;-66
2024/01/08 08:04:50;;;;;;;10.40;8.17;;;;;;;-7.32;100.00;102160.44;5104298;28;20097;-65
2024/01/08 08:07:16;;;;;;;8.48;6.47;;;;;;;-7.31;100.00;102157.00;5106209;28;20040;-67
2024/01/08 08:09:41;;;;;;;8.00;5.65;;;;;;;-7.35;100.00;102143.22;5106244;28;20039;-67
2024/01/08 08:12:07;;;;;;;12.00;6.47;;;;;;;-7.33;100.00;102153.56;5100985;28;20036;-65
2024/01/08 08:14:32;;;;;;;9.23;6.73;;;;;;;-7.40;100.00;102126.03;5098856;28;20039;-65
2024/01/08 08:16:58;;;;;;;8.90;5.83;;;;;;;-7.32;100.00;102145.78;5105728;28;20036;-69
2024/01/08 08:19:23;;;;;;;10.33;6.20;;;;;;;-7.57;100.00;102102.91;5105146;28;20046;-65
2024/01/08 08:21:49;;;;;;;8.43;5.40;;;;;;;-7.32;100.00;102140.59;5102707;28;20085;-67
2024/01/08 08:24:14;;;;;;;12.83;5.97;;;;;;;-7.05;100.00;102170.53;5109338;28;20374;-66
2024/01/08 08:26:40;;;;;;;7.73;5.13;;;;;;;-7.00;100.00;102152.34;5104193;28;20039;-67
2024/01/08 08:29:05;;;;;;;5.97;5.23;;;;;;;-7.35;100.00;102075.94;5101071;28;20028;-70
2024/01/08 08:31:31;;;;;;;9.53;4.93;;;;;;;-6.68;100.00;102154.56;5096898;28;20032;-67
2024/01/08 08:33:56;;;;;;;5.77;4.10;;;;;;;-6.64;100.00;102136.38;5090559;28;20493;-68
2024/01/08 08:36:22;;;;;;;7.67;3.97;;;;;;;-6.72;100.00;102109.69;5092145;28;20036;-68
2024/01/08 08:38:47;;;;;;;8.60;3.57;;;;;;;-6.52;100.00;102118.94;5092285;28;20036;-71
2024/01/08 08:41:13;;;;;;;10.03;4.17;;;;;;;-6.30;100.00;102161.84;5091968;28;20036;-66
2024/01/08 08:43:38;;;;;;;5.00;3.93;;;;;;;-6.49;100.00;102121.50;5092139;28;20028;-67
2024/01/08 08:46:04;;;;;;;7.00;4.13;;;;;;;-6.26;100.00;102153.13;5091364;28;20039;-69
2024/01/08 08:48:29;;;;;;;10.17;3.47;;;;;;;-6.30;100.00;102151.47;5091212;28;20086;-68
2024/01/08 08:50:55;;;;;;;12.87;4.37;;;;;;;-6.35;100.00;102154.13;5092085;28;20078;-65
2024/01/08 08:53:20;;;;;;;7.83;4.30;;;;;;;-6.43;100.00;102113.63;5092634;28;20372;-71
2024/01/08 08:55:46;;;;;;;10.87;3.73;;;;;;;-6.45;100.00;102136.13;5091837;28;20040;-75
2024/01/08 08:58:11;;;;;;;4.33;3.70;;;;;;;-6.30;100.00;102141.97;5091884;28;20032;-74
2024/01/08 09:00:37;;;;;;;8.47;3.60;;;;;;;-6.33;100.00;102151.53;5090609;28;20028;-70
2024/01/08 09:03:12;;;;;;;4.97;3.50;;;;;;;-6.24;100.00;102156.56;5090922;28;20726;-72
2024/01/08 09:05:38;;;;;;;8.95;5.00;;;;;;;-6.32;100.00;102129.91;5099668;28;20035;-66
2024/01/08 09:08:04;;;;;;;7.00;4.60;;;;;;;-6.22;100.00;102144.44;5104556;28;20548;-64
2024/01/08 09:10:29;;;;;;;13.30;5.03;;;;;;;-6.42;100.00;102107.56;5105586;28;20465;-71
2024/01/08 09:12:55;;;;;;;14.83;4.43;;;;;;;-6.42;100.00;102110.16;5103335;28;20281;-67
2024/01/08 09:15:20;;;;;;;8.20;4.70;;;;;;;-6.36;100.00;102117.84;5099690;28;20028;-67
2024/01/08 09:17:46;;;;;;;8.73;3.60;;;;;;;-6.25;100.00;102134.97;5095061;28;20039;-67
2024/01/08 09:20:11;;;;;;;5.57;3.47;;;;;;;-6.46;100.00;102082.56;5080022;28;20055;-68
2024/01/08 09:22:37;;;;;;;3.40;3.10;;;;;;;-6.20;100.00;102127.13;5103417;28;20097;-67
2024/01/08 09:25:04;;;;;;;4.83;3.17;;;;;;;-6.20;100.00;102128.84;5100978;28;20101;-65
2024/01/08 09:27:31;;;;;;;3.92;3.13;;;;;;;-6.11;100.00;102137.34;5100904;28;20126;-67
2024/01/08 09:29:57;;;;;;;3.80;3.45;;;;;;;-6.13;100.00;102115.75;5097866;28;20067;-66
2024/01/08 09:32:24;;;;;;;3.53;3.20;;;;;;;-6.11;100.00;102126.97;5105149;28;20101;-66
2024/01/08 09:34:53;;;;;;;4.20;3.15;;;;;;;-6.27;100.00;102094.38;5101152;28;20133;-68
2024/01/08 09:37:20;;;;;;;;;;;;;;;-6.07;100.00;102118.28;5098616;28;20139;-66
2024/01/08 09:39:46;;;;;;;3.88;3.03;;;;;;;-6.15;100.00;102091.59;5101841;28;19916;-67
2024/01/08 09:42:12;;;;;;;4.00;3.40;;;;;;;-6.38;100.00;102047.88;5100104;28;20081;-66
2024/01/08 09:44:40;;;;;;;4.70;3.47;;;;;;;-6.06;100.00;102109.63;5100094;28;20685;-64
2024/01/08 09:47:06;;;;;;;6.87;3.53;;;;;;;-6.08;100.00;102132.09;5101914;28;20042;-68
2024/01/08 09:49:34;;;;;;;4.50;3.20;;;;;;;-6.43;100.00;102061.78;5100831;28;20039;-64
2024/01/08 09:52:03;;;;;;;3.25;2.78;;;;;;;-6.27;100.00;102089.19;5099641;28;20091;-66
2024/01/08 09:54:29;;;;;;;3.92;3.30;;;;;;;-6.12;100.00;102109.69;5097790;28;20035;-66
2024/01/08 09:56:58;;;;;;;5.72;3.40;;;;;;;-6.03;100.00;102127.72;5102408;28;20052;-66
2024/01/08 09:59:24;;;;;;;7.97;4.40;;;;;;;-6.06;100.00;102113.94;5096533;28;20032;-65
2024/01/08 10:01:54;;;;;;;4.93;3.63;;;;;;;-6.16;100.00;102107.19;5086561;28;20059;-66
2024/01/08 10:04:26;;;;;;;5.80;3.72;;;;;;;-6.46;100.00;102051.47;5105230;28;20067;-68
2024/01/08 10:07:06;;;;;;;6.80;4.43;;;;;;;-6.08;100.00;102105.31;5099271;28;20044;-65
2024/01/08 10:09:31;;;;;;;4.32;3.70;;;;;;;-6.00;100.00;102134.59;5098361;28;20549;-66
2024/01/08 10:11:57;;;;;;;4.33;3.40;;;;;;;-6.11;100.00;102116.59;5106628;28;20084;-66
2024/01/08 10:14:26;;;;;;;5.27;4.07;;;;;;;-6.36;100.00;102063.41;5111363;28;20402;-66
2024/01/08 10:16:53;;;;;;;5.70;4.00;;;;;;;-6.08;100.00;102106.16;5092411;28;20829;-68
2024/01/08 10:19:23;;;;;;;5.18;4.03;;;;;;;-6.09;100.00;102103.59;5102538;28;20417;-68
2024/01/08 10:22:08;;;;;;;7.10;4.10;;;;;;;-6.01;100.00;102127.69;5099789;28;20036;-66
2024/01/08 10:24:34;;;;;;;5.93;4.25;;;;;;;-5.97;100.00;102143.19;5101465;28;20047;-65
2024/01/08 10:27:01;;;;;;;5.35;3.55;;;;;;;-6.00;100.00;102135.47;5099607;28;20028;-66
2024/01/08 10:29:27;;;;;;;6.38;4.43;;;;;;;-6.07;100.00;102136.44;5105919;28;20425;-67
2024/01/08 10:31:52;;;;;;;4.97;3.97;;;;;;;-6.25;100.00;102103.84;5104961;28;20172;-67
2024/01/08 10:34:19;;;;;;;5.53;4.90;;;;;;;-6.07;100.00;102113.09;5104688;28;20092;-69
2024/01/08 10:36:45;;;;;;;4.80;4.30;;;;;;;-6.27;100.00;102105.63;5105442;28;20035;-69
2024/01/08 10:39:11;;;;;;;4.57;4.07;;;;;;;-6.07;100.00;102144.22;5108120;28;20058;-70
2024/01/08 10:41:37;;;;;;;4.85;3.88;;;;;;;-6.41;100.00;102096.31;5103132;28;20059;-68
2024/01/08 10:44:03;;;;;;;7.90;4.10;;;;;;;-6.13;100.00;102146.03;5096082;28;20083;-69
2024/01/08 10:46:34;;;;;;;6.43;4.63;;;;;;;-6.38;100.00;102106.63;5094768;28;20032;-70
2024/01/08 10:49:01;;;;;;;4.82;4.32;;;;;;;-6.13;100.00;102149.47;5094646;28;20043;-72
2024/01/08 10:51:27;;;;;;;5.05;4.53;;;;;;;-6.11;100.00;102137.34;5092105;28;20345;-68
2024/01/08 10:53:54;;;;;;;4.93;4.25;;;;;;;-6.13;100.00;102139.09;5095092;28;20404;-70
2024/01/08 10:56:27;;;;;;;4.10;3.80;;;;;;;-6.10;100.00;102140.78;5093366;28;20036;-67
2024/01/08 10:59:05;;;;;;;6.18;5.47;;;;;;;-6.10;100.00;102148.56;5096810;28;20063;-65
2024/01/08 11:01:32;;;;;;;4.38;3.97;;;;;;;-6.10;100.00;102144.25;5095167;28;20069;-65
2024/01/08 11:04:03;;;;;;;7.78;5.78;;;;;;;-6.15;100.00;102143.44;5092287;28;20048;-68
2024/01/08 11:06:30;;;;;;;5.68;5.07;;;;;;;-6.17;100.00;102115.84;5093714;28;20044;-67
2024/01/08 11:09:00;;;;;;;8.75;5.05;;;;;;;-6.08;100.00;102129.50;5093514;28;20036;-71
2024/01/08 11:11:26;;;;;;;6.25;4.57;;;;;;;-6.15;100.00;102129.63;5094462;28;20051;-70
2024/01/08 11:13:52;;;;;;;9.48;4.80;;;;;;;-6.09;100.00;102134.72;5093045;28;20119;-67
2024/01/08 11:16:29;;;;;;;5.93;4.63;;;;;;;-6.18;100.00;102125.34;5094207;28;20126;-74
2024/01/08 11:19:19;;;;;;;7.45;4.90;;;;;;;-6.04;100.00;102140.72;5093807;28;20043;-70
2024/01/08 11:21:48;;;;;;;6.50;4.88;;;;;;;-6.27;100.00;102078.84;5093775;28;20050;-66
2024/01/08 11:24:14;;;;;;;4.38;3.95;;;;;;;-6.30;100.00;102094.44;5093867;28;20071;-66
2024/01/08 11:26:44;;;;;;;5.50;5.00;;;;;;;-6.09;100.00;102124.34;5094284;28;20518;-66
2024/01/08 11:29:11;;;;;;;6.60;4.85;;;;;;;-6.44;100.00;102075.63;5093677;28;20077;-69
2024/01/08 11:31:45;;;;;;;8.98;5.85;;;;;;;-6.09;100.00;102125.19;5075281;28;20134;-68
2024/01/08 11:34:51;;;;;;;6.65;4.40;;;;;;;-6.14;100.00;102095.03;5092050;28;20036;-69
2024/01/08 11:37:32;;;;;;;5.63;5.00;;;;;;;-6.52;100.00;102039.47;5092096;28;20507;-68
2024/01/08 11:40:20;;;;;;;5.93;4.07;;;;;;;-6.19;100.00;102091.66;5093466;28;20090;-67
2024/01/08 11:42:47;;;;;;;9.63;5.22;;;;;;;-6.31;100.00;102066.81;5091872;28;20105;-69
2024/01/08 11:45:13;;;;;;;12.02;5.53;;;;;;;-6.19;100.00;102082.16;5093307;28;20039;-70
2024/01/08 11:47:39;;;;;;;7.90;4.97;;;;;;;-6.17;100.00;102089.91;5092077;28;20032;-68
2024/01/08 11:50:08;;;;;;;5.10;4.43;;;;;;;-6.28;100.00;102067.59;5093157;28;20527;-69
2024/01/08 11:52:36;;;;;;;5.63;4.40;;;;;;;-6.08;100.00;102105.31;5093215;28;20039;-69
2024/01/08 11:55:04;;;;;;;8.25;4.65;;;;;;;-6.20;100.00;102087.38;5093394;28;20090;-69
2024/01/08 11:57:30;;;;;;;7.65;6.90;;;;;;;-6.48;100.00;102048.03;5093664;28;20093;-71
2024/01/08 11:59:56;;;;;;;5.20;4.80;;;;;;;-6.08;100.00;102123.47;5093880;28;20162;-71
2024/01/08 12:02:27;;;;;;;9.23;4.57;;;;;;;-6.20;100.00;102101.19;5093315;28;20052;-71
2024/01/08 12:05:00;;;;;;;5.53;4.82;;;;;;;-6.65;100.00;102020.66;5093165;28;20051;-69
2024/01/08 12:07:29;;;;;;;4.97;4.15;;;;;;;-6.11;100.00;102116.59;5093476;28;20134;-68
2024/01/08 12:09:57;;;;;;;5.03;4.55;;;;;;;-6.24;100.00;102109.91;5093148;28;20135;-70
2024/01/08 12:12:24;;;;;;;6.72;4.93;;;;;;;-6.22;100.00;102107.28;5092004;28;20131;-70
2024/01/08 12:14:50;;;;;;;6.00;4.82;;;;;;;-6.23;100.00;102114.19;5092739;28;20031;-69
2024/01/08 12:17:18;;;;;;;5.90;4.97;;;;;;;-6.18;100.00;102119.31;5093004;28;20086;-68
2024/01/08 12:19:52;;;;;;;11.25;4.70;;;;;;;-6.15;100.00;102125.31;5092722;28;20039;-68
2024/01/08 12:22:18;;;;;;;6.85;5.65;;;;;;;-6.22;100.00;102108.13;5093136;28;20069;-71
2024/01/08 12:24:45;;;;;;;6.68;4.63;;;;;;;-6.38;100.00;102096.25;5091876;28;20068;-70
2024/01/08 12:27:14;;;;;;;5.88;5.28;;;;;;;-6.33;100.00;102099.66;5092823;28;20036;-70
2024/01/08 12:29:41;;;;;;;6.73;5.10;;;;;;;-6.11;100.00;102126.97;5092988;28;20086;-70
2024/01/08 12:32:17;;;;;;;13.10;5.63;;;;;;;-6.13;100.00;102138.25;5092749;28;20280;-70
2024/01/08 12:34:43;;;;;;;6.07;5.22;;;;;;;-6.15;100.00;102125.31;5095437;28;20028;-71
2024/01/08 12:37:11;;;;;;;8.97;7.10;;;;;;;-6.23;100.00;102116.78;5096563;28;20081;-70
2024/01/08 12:39:38;;;;;;;7.78;5.72;;;;;;;-6.18;100.00;102130.53;5094262;28;20028;-69
2024/01/08 12:42:14;;;;;;;9.30;5.70;;;;;;;-6.33;100.00;102107.44;5095815;28;20028;-71
2024/01/08 12:44:41;;;;;;;6.60;5.90;;;;;;;-6.31;100.00;102124.69;5092515;28;20041;-66
2024/01/08 12:47:07;;;;;;;13.07;8.90;;;;;;;-6.40;100.00;102105.81;5092755;28;20123;-68
2024/01/08 12:49:34;;;;;;;10.20;6.83;;;;;;;-6.30;100.00;102126.41;5092038;28;20127;-74
2024/01/08 12:52:00;;;;;;;12.20;5.82;;;;;;;-6.30;100.00;102125.53;5092308;28;20032;-68
2024/01/08 12:54:36;;;;;;;6.88;5.88;;;;;;;-6.29;100.00;102138.50;5092502;28;20090;-66
2024/01/08 12:57:03;;;;;;;6.18;5.43;;;;;;;-6.21;100.00;102161.69;5090828;28;20031;-71
2024/01/08 12:59:31;;;;;;;7.80;5.60;;;;;;;-6.37;100.00;102124.75;5092033;28;20174;-71
2024/01/08 13:01:57;;;;;;;9.10;6.40;;;;;;;-6.31;100.00;102136.78;5091108;28;20474;-69
2024/01/08 13:04:25;;;;;;;11.40;7.50;;;;;;;-6.13;100.00;102153.81;5091348;28;20135;-67
2024/01/08 13:06:50;;;;;;;17.63;7.60;;;;;;;-6.15;100.00;102163.34;5092203;28;20043;-68
2024/01/08 13:09:16;;;;;;;7.43;6.70;;;;;;;-6.30;100.00;102141.09;5092058;28;20076;-69
2024/01/08 13:11:42;;;;;;;7.60;5.80;;;;;;;-6.22;100.00;102161.72;5091999;28;20048;-67
2024/01/08 13:14:11;;;;;;;7.00;5.75;;;;;;;-6.21;100.00;102140.97;5092332;28;20058;-67
2024/01/08 13:16:38;;;;;;;9.18;5.63;;;;;;;-6.23;100.00;102150.50;5092601;28;20043;-67
2024/01/08 13:19:04;;;;;;;7.55;5.47;;;;;;;-6.22;100.00;102149.63;5092471;28;20039;-69
2024/01/08 13:21:29;;;;;;;8.63;6.43;;;;;;;-6.34;100.00;102137.69;5092078;28;20028;-71
2024/01/08 13:23:55;;;;;;;7.53;5.30;;;;;;;-6.16;100.00;102170.25;5091581;28;20115;-66
2024/01/08 13:26:21;;;;;;;10.37;6.93;;;;;;;-6.18;100.00;102166.84;5091864;28;20040;-69
2024/01/08 13:28:46;;;;;;;15.70;9.77;;;;;;;-6.19;100.00;102164.28;5091856;28;20039;-67
2024/01/08 13:31:12;;;;;;;8.47;6.87;;;;;;;-6.23;100.00;102173.84;5091956;28;20036;-69
2024/01/08 13:33:38;;;;;;;9.07;6.97;;;;;;;-6.29;100.00;102163.56;5092389;28;20040;-65
2024/01/08 13:36:04;;;;;;;7.88;5.80;;;;;;;-6.35;100.00;102153.28;5090854;28;20479;-68
2024/01/08 13:38:31;;;;;;;17.00;11.73;;;;;;;-6.19;100.00;102175.50;5090600;28;20044;-68
2024/01/08 13:40:58;;;;;;;11.07;7.45;;;;;;;-6.22;100.00;102164.31;5091592;28;20036;-66
2024/01/08 13:43:31;;;;;;;13.48;7.32;;;;;;;-6.15;100.00;102166.78;5094885;28;20131;-65
2024/01/08 13:45:56;;;;;;;7.90;6.53;;;;;;;-6.20;100.00;102150.44;5096521;28;20113;-68
2024/01/08 13:48:23;;;;;;;10.73;7.27;;;;;;;-6.14;100.00;102152.94;5082277;28;20069;-66
2024/01/08 13:50:49;;;;;;;9.52;6.43;;;;;;;-6.20;100.00;102134.91;5105271;28;20487;-66
2024/01/08 13:53:15;;;;;;;9.53;6.63;;;;;;;-6.03;100.00;102160.59;5103102;28;20142;-69
2024/01/08 13:55:41;;;;;;;11.50;8.07;;;;;;;-6.17;100.00;102144.34;5106796;28;20081;-67
2024/01/08 13:58:08;;;;;;;10.00;7.13;;;;;;;-6.37;100.00;102113.53;5112144;28;20039;-70
2024/01/08 14:00:34;;;;;;;9.48;7.45;;;;;;;-6.30;100.00;102117.78;5113900;28;20054;-69
2024/01/08 14:03:01;;;;;;;9.98;7.53;;;;;;;-6.17;100.00;102155.59;5112897;28;20052;-66
2024/01/08 14:05:26;;;;;;;8.43;6.63;;;;;;;-6.13;100.00;102157.25;5110983;28;20044;-72
2024/01/08 14:07:53;;;;;;;9.53;7.70;;;;;;;-6.05;100.00;102165.81;5107833;28;20047;-67
2024/01/08 14:10:20;;;;;;;8.95;7.63;;;;;;;-6.17;100.00;102142.63;5112813;28;20086;-64
2024/01/08 14:12:45;;;;;;;10.90;6.93;;;;;;;-5.99;100.00;102170.88;5110919;28;20032;-67
2024/01/08 14:15:11;;;;;;;8.47;6.27;;;;;;;-5.96;100.00;102163.06;5105409;28;20044;-67
2024/01/08 14:17:38;;;;;;;10.27;7.83;;;;;;;-5.95;100.00;102162.19;5104427;28;20082;-66
2024/01/08 14:20:05;;;;;;;13.02;7.95;;;;;;;-6.12;100.00;102139.97;5105052;28;20633;-72
2024/01/08 14:22:31;;;;;;;9.63;7.38;;;;;;;-5.93;100.00;102182.91;5102496;28;20040;-67
2024/01/08 14:24:57;;;;;;;10.00;7.30;;;;;;;-6.01;100.00;102167.47;5109398;27;20035;-66
2024/01/08 14:27:23;;;;;;;12.00;7.18;;;;;;;-5.98;100.00;102177.78;5101246;28;20043;-69
2024/01/08 14:29:50;;;;;;;10.07;7.10;;;;;;;-5.98;100.00;102175.19;5107372;28;20075;-67
2024/01/08 14:32:16;;;;;;;11.55;7.28;;;;;;;-6.12;100.00;102145.13;5117097;28;20028;-67
2024/01/08 14:34:42;;;;;;;11.52;8.02;;;;;;;-5.88;100.00;102195.75;5110803;28;20027;-67
2024/01/08 14:37:08;;;;;;;7.77;6.57;;;;;;;-6.04;100.00;102170.09;5111185;28;20124;-65
2024/01/08 14:39:33;;;;;;;9.67;6.90;;;;;;;-6.09;100.00;102176.22;5105805;28;20051;-67
2024/01/08 14:41:59;;;;;;;12.13;8.73;;;;;;;-5.90;100.00;102187.19;5107655;28;20478;-68
2024/01/08 14:44:25;;;;;;;12.98;7.57;;;;;;;-5.78;100.00;102208.59;5109599;28;20064;-69
2024/01/08 14:46:51;;;;;;;14.93;9.33;;;;;;;-5.93;100.00;102186.34;5107547;28;20074;-69
2024/01/08 14:49:19;;;;;;;10.77;6.97;;;;;;;-5.83;100.00;102217.31;5106133;28;20036;-70
2024/01/08 14:51:44;;;;;;;9.43;6.53;;;;;;;-5.85;100.00;102217.34;5104210;28;20040;-68
2024/01/08 14:54:11;;;;;;;10.13;7.57;;;;;;;-5.86;100.00;102214.75;5102576;28;20507;-67
2024/01/08 14:56:36;;;;;;;9.55;7.53;;;;;;;-5.93;100.00;102199.31;5103031;28;20505;-67
2024/01/08 14:59:02;;;;;;;9.50;7.23;;;;;;;-5.85;100.00;102203.50;5103538;28;20157;-68
2024/01/08 15:01:28;;;;;;;11.00;7.17;;;;;;;-5.87;100.00;102198.34;5103062;28;20127;-70
2024/01/08 15:03:53;;;;;;;10.47;7.47;;;;;;;-5.79;100.00;102216.38;5103830;28;20032;-67
2024/01/08 15:06:19;;;;;;;8.10;7.03;;;;;;;-5.78;100.00;102212.91;5104438;28;20028;-66
2024/01/08 15:08:45;;;;;;;11.53;7.40;;;;;;;-5.86;100.00;102197.44;5105700;28;20096;-69
2024/01/08 15:11:11;;;;;;;11.83;8.73;;;;;;;-5.78;100.00;102210.31;5102861;28;20415;-66
2024/01/08 15:13:36;;;;;;;10.57;7.77;;;;;;;-5.83;100.00;102200.00;5107477;28;20032;-68
2024/01/08 15:16:02;;;;;;;9.87;6.77;;;;;;;-5.79;100.00;102217.22;5114996;28;20039;-69
2024/01/08 15:18:28;;;;;;;12.52;7.78;;;;;;;-5.72;100.00;102236.19;5114203;28;20390;-68
2024/01/08 15:20:54;;;;;;;10.17;7.63;;;;;;;-5.97;100.00;102194.22;5115620;28;20088;-71
2024/01/08 15:23:19;;;;;;;13.13;8.03;;;;;;;-5.87;100.00;102198.34;5116707;28;20028;-70
2024/01/08 15:25:44;;;;;;;16.00;10.30;;;;;;;-5.77;100.00;102209.47;5117350;28;20046;-74
2024/01/08 15:28:10;;;;;;;43.20;28.53;;;;;;;-5.76;100.00;102208.56;5115430;28;20405;-66
2024/01/08 15:30:36;;;;;;;29.97;18.60;;;;;;;-5.68;100.00;102209.31;5112994;28;20092;-66
2024/01/08 15:33:01;;;;;;;16.67;10.50;;;;;;;-5.61;100.00;102235.13;5113326;28;20462;-69
2024/01/08 15:35:29;;;;;;;13.43;9.60;;;;;;;-5.75;100.00;102205.09;5112697;28;20043;-69
2024/01/08 15:37:55;;;;;;;23.08;12.38;;;;;;;-5.57;100.00;102225.56;5114362;28;20109;-65
2024/01/08 15:40:21;;;;;;;29.70;16.23;;;;;;;-5.56;100.00;102232.47;5113337;28;20122;-69
2024/01/08 15:42:46;;;;;;;26.07;12.47;;;;;;;-5.52;100.00;102225.47;5113289;28;20038;-68
2024/01/08 15:45:12;;;;;;;19.07;13.07;;;;;;;-5.67;100.00;102209.28;5095227;28;20032;-66
2024/01/08 15:47:37;;;;;;;11.70;8.40;;;;;;;-5.55;100.00;102209.94;5095543;28;20075;-65
2024/01/08 15:50:23;;;;;;;14.97;9.10;;;;;;;-5.43;100.00;102226.19;5093034;28;20139;-67
2024/01/08 15:52:49;;;;;;;15.23;7.45;;;;;;;-5.58;100.00;102195.28;5099105;28;20028;-67
2024/01/08 15:55:18;;;;;;;9.70;7.60;;;;;;;-6.29;100.00;102080.59;5101390;28;20483;-66
2024/01/08 15:57:44;;;;;;;10.27;8.20;;;;;;;-5.44;100.00;102221.03;5113024;28;20070;-65
2024/01/08 16:00:10;;;;;;;10.00;6.27;;;;;;;-5.41;100.00;102227.03;5113702;28;20070;-67
2024/01/08 16:02:36;;;;;;;11.00;7.53;;;;;;;-5.52;100.00;102205.56;5101860;28;20510;-68
2024/01/08 16:05:02;;;;;;;9.38;6.43;;;;;;;-5.53;100.00;102201.25;5091781;28;20427;-67
2024/01/08 16:07:29;;;;;;;8.70;6.13;;;;;;;-5.49;100.00;102208.13;5093613;28;20127;-66
2024/01/08 16:09:54;;;;;;;8.73;6.50;;;;;;;-5.32;100.00;102234.66;5098268;28;20131;-68
2024/01/08 16:12:20;;;;;;;10.93;6.03;;;;;;;-5.29;100.00;102233.75;5106373;28;20039;-67
2024/01/08 16:14:45;;;;;;;9.67;6.07;;;;;;;-5.45;100.00;102207.19;5113478;28;20501;-68
2024/01/08 16:17:11;;;;;;;7.53;5.73;;;;;;;-5.32;100.00;102234.66;5113620;28;20039;-69
2024/01/08 16:19:37;;;;;;;5.90;5.30;;;;;;;-5.37;100.00;102209.66;5113519;28;20039;-66
2024/01/08 16:22:03;;;;;;;9.73;6.40;;;;;;;-5.27;100.00;102225.94;5112797;28;20031;-66
2024/01/08 16:24:28;;;;;;;7.57;6.50;;;;;;;-5.24;100.00;102231.06;5116241;28;20447;-66
2024/01/08 16:26:53;;;;;;;5.80;4.83;;;;;;;-5.42;100.00;102196.75;5110502;28;20032;-69
2024/01/08 16:29:19;;;;;;;8.80;6.17;;;;;;;-5.19;100.00;102235.31;5103682;28;20027;-66
2024/01/08 16:31:46;;;;;;;8.10;5.83;;;;;;;-5.17;100.00;102233.56;5095841;28;20051;-66
2024/01/08 16:34:12;;;;;;;8.45;5.20;;;;;;;-6.15;100.00;102063.06;5099336;28;20105;-66
2024/01/08 16:36:38;;;;;;;7.28;5.15;;;;;;;-5.41;100.00;102192.41;5103749;28;20036;-65
2024/01/08 16:39:04;;;;;;;5.73;4.80;;;;;;;-5.28;100.00;102208.63;5102173;28;20043;-68
2024/01/08 16:41:31;;;;;;;5.85;4.95;;;;;;;-5.13;100.00;102239.56;5093584;28;20068;-70
2024/01/08 16:43:57;;;;;;;5.50;4.93;;;;;;;-5.17;100.00;102227.50;5093084;28;20403;-70
2024/01/08 16:46:22;;;;;;;6.20;4.80;;;;;;;-5.14;100.00;102235.25;5074453;28;20036;-67
2024/01/08 16:48:48;;;;;;;7.80;5.03;;;;;;;-5.11;100.00;102233.44;5092221;28;20032;-68
2024/01/08 16:51:14;;;;;;;7.30;4.27;;;;;;;-5.07;100.00;102239.44;5093577;28;20042;-68
2024/01/08 16:53:40;;;;;;;4.85;4.35;;;;;;;-5.10;100.00;102237.75;5092495;28;20064;-71
2024/01/08 16:56:05;;;;;;;5.77;4.10;;;;;;;-5.27;100.00;102206.00;5092571;28;20333;-73
2024/01/08 16:58:31;;;;;;;4.80;4.10;;;;;;;-5.17;100.00;102227.50;5092526;28;20066;-69
2024/01/08 17:00:57;;;;;;;4.40;4.00;;;;;;;-5.07;100.00;102260.22;5097241;28;20549;-67
2024/01/08 17:03:23;;;;;;;9.37;4.77;;;;;;;-5.16;100.00;102239.59;5105776;28;20058;-67
2024/01/08 17:05:48;;;;;;;5.57;4.20;;;;;;;-5.15;100.00;102231.78;5114509;28;20043;-68
2024/01/08 17:08:14;;;;;;;5.70;4.13;;;;;;;-5.07;100.00;102250.69;5113016;28;20032;-66
2024/01/08 17:10:40;;;;;;;7.50;4.00;;;;;;;-5.16;100.00;102240.47;5113019;28;20106;-70
2024/01/08 17:13:05;;;;;;;5.07;4.57;;;;;;;-5.07;100.00;102242.91;5113246;28;20031;-71
2024/01/08 17:15:31;;;;;;;7.07;4.23;;;;;;;-5.05;100.00;102253.25;5107516;28;20085;-72
2024/01/08 17:17:57;;;;;;;4.97;4.00;;;;;;;-5.18;100.00;102236.19;5092470;28;20048;-71
2024/01/08 17:20:22;;;;;;;4.60;4.10;;;;;;;-5.29;100.00;102215.56;5092248;28;20040;-72
2024/01/08 17:22:48;;;;;;;4.20;3.80;;;;;;;-5.11;100.00;102248.16;5097557;28;20035;-71
2024/01/08 17:25:14;;;;;;;5.23;3.63;;;;;;;-5.10;100.00;102250.75;5075775;28;20039;-76
2024/01/08 17:27:40;;;;;;;4.83;4.00;;;;;;;-5.14;100.00;102253.44;5094019;28;20039;-75
2024/01/08 17:30:07;;;;;;;5.45;3.63;;;;;;;-5.21;100.00;102241.41;5094987;28;20036;-76
2024/01/08 17:32:33;;;;;;;3.53;3.22;;;;;;;-5.30;100.00;102234.63;5095656;28;20673;-72
2024/01/08 17:34:58;;;;;;;4.47;4.00;;;;;;;-6.23;100.00;102075.31;5092789;28;20032;-71
2024/01/08 17:37:24;;;;;;;4.10;3.67;;;;;;;-5.24;100.00;102262.22;5092437;28;20074;-70
2024/01/08 17:39:50;;;;;;;4.87;4.07;;;;;;;-5.42;100.00;102224.47;5091412;28;20077;-71
2024/01/08 17:42:16;;;;;;;3.75;3.25;;;;;;;-5.43;100.00;102236.59;5092589;28;20081;-69
2024/01/08 17:44:42;;;;;;;5.97;4.67;;;;;;;-5.52;100.00;102226.31;5092215;28;20036;-72
2024/01/08 17:47:08;;;;;;;5.93;3.65;;;;;;;-5.50;100.00;102218.50;5091702;28;20555;-72
2024/01/08 17:49:34;;;;;;;4.28;3.72;;;;;;;-5.48;100.00;102248.78;5075935;28;20131;-69
2024/01/08 17:52:00;;;;;;;5.50;3.93;;;;;;;-5.40;100.00;102272.03;5094424;28;20075;-71
2024/01/08 17:54:25;;;;;;;3.97;3.60;;;;;;;-5.42;100.00;102259.06;5096590;28;20077;-69
2024/01/08 17:56:52;;;;;;;3.90;3.43;;;;;;;-5.53;100.00;102250.56;5094486;28;20202;-72
2024/01/08 17:59:17;;;;;;;5.57;4.00;;;;;;;-5.54;100.00;102243.66;5092588;28;20477;-74
2024/01/08 18:01:45;;;;;;;5.40;4.67;;;;;;;-5.54;100.00;102243.66;5091361;28;20120;-69
2024/01/08 18:04:10;;;;;;;5.70;4.45;;;;;;;-5.44;100.00;102265.16;5090179;28;20040;-72
2024/01/08 18:06:38;;;;;;;5.30;4.00;;;;;;;-5.48;100.00;102263.50;5091978;28;20065;-72
2024/01/08 18:09:04;;;;;;;4.05;3.45;;;;;;;-5.86;100.00;102217.34;5096856;28;20478;-71
2024/01/08 18:11:31;;;;;;;4.47;3.73;;;;;;;-5.57;100.00;102274.88;5110640;28;20050;-69
2024/01/08 18:13:57;;;;;;;4.15;3.75;;;;;;;-5.62;100.00;102267.16;5112771;28;20039;-72
2024/01/08 18:16:22;;;;;;;4.33;3.23;;;;;;;-5.67;100.00;102263.78;5111980;28;20031;-70
2024/01/08 18:18:48;;;;;;;3.37;3.07;;;;;;;-5.79;100.00;102248.38;5109470;28;20582;-69